Time;durP1;ratioP1;P1;durP2;ratioP2;P2;SDS_P1;SDS_P2;PMS_P1;PMS_P2;Temp;Humidity;BMP_temperature;BMP_pressure;BME280_temperature;BME280_humidity;BME280_pressure;Samples;Min_cycle;Max_cycle;Signal;HPM_P1;HPM_P2
2022/04/05 00:02:22;;;;;;;8.38;2.35;;;6.60;99.90;;;;;;4911196;29;20088;-76
2022/04/05 00:04:48;;;;;;;7.80;2.45;;;6.70;99.90;;;;;;4879182;29;20132;-78
2022/04/05 00:07:14;;;;;;;4.97;2.20;;;6.60;99.90;;;;;;4878956;29;20040;-76
2022/04/05 00:09:39;;;;;;;8.05;2.20;;;6.60;99.90;;;;;;4895276;29;20053;-76
2022/04/05 00:12:06;;;;;;;7.40;2.22;;;6.60;99.90;;;;;;4877797;29;20868;-76
2022/04/05 00:14:31;;;;;;;;;;;6.60;99.90;;;;;;4905820;29;20131;-77
2022/04/05 00:16:57;;;;;;;9.75;2.13;;;6.60;99.90;;;;;;4894619;29;20006;-77
2022/04/05 00:19:23;;;;;;;7.20;2.00;;;6.60;99.90;;;;;;4894676;29;20192;-79
2022/04/05 00:21:49;;;;;;;8.25;2.53;;;6.60;99.90;;;;;;4894920;29;20135;-76
2022/04/05 00:24:16;;;;;;;6.40;1.80;;;6.50;99.90;;;;;;4894284;29;20052;-76
2022/04/05 00:26:42;;;;;;;6.28;2.03;;;6.50;99.90;;;;;;4894665;29;20107;-80
2022/04/05 00:29:08;;;;;;;9.10;2.25;;;6.50;99.90;;;;;;4893997;29;20056;-75
2022/04/05 00:31:34;;;;;;;6.65;2.20;;;6.50;99.90;;;;;;4894973;29;20056;-76
2022/04/05 00:33:59;;;;;;;9.35;2.55;;;6.50;99.90;;;;;;4894246;29;20139;-77
2022/04/05 00:36:25;;;;;;;7.93;2.50;;;6.50;99.90;;;;;;4881783;29;20095;-76
2022/04/05 00:38:51;;;;;;;6.97;2.35;;;7.10;99.90;;;;;;4896382;29;20052;-76
2022/04/05 00:41:16;;;;;;;7.75;2.58;;;6.50;99.90;;;;;;4912919;29;20052;-76
2022/04/05 00:43:42;;;;;;;7.13;2.15;;;6.50;99.90;;;;;;4912171;29;20040;-77
2022/04/05 00:46:08;;;;;;;7.22;2.30;;;6.50;99.90;;;;;;4897260;29;20044;-77
2022/04/05 00:48:50;;;;;;;4.03;2.10;;;6.40;99.90;;;;;;4913486;29;20127;-80
2022/04/05 00:51:18;;;;;;;7.53;2.03;;;6.40;99.90;;;;;;4896233;29;20098;-77
2022/04/05 00:53:47;;;;;;;7.15;1.67;;;6.40;99.90;;;;;;4913085;29;20059;-78
2022/04/05 00:56:15;;;;;;;6.20;1.88;;;6.50;99.90;;;;;;4913079;29;20051;-76
2022/04/05 00:58:42;;;;;;;6.05;1.67;;;6.40;99.90;;;;;;4902437;29;20096;-77
2022/04/05 01:01:09;;;;;;;8.15;1.70;;;6.40;99.90;;;;;;4912650;29;20123;-77
2022/04/05 01:03:36;;;;;;;5.95;1.73;;;6.40;99.90;;;;;;4897635;29;20409;-77
2022/04/05 01:06:04;;;;;;;6.43;1.80;;;6.40;99.90;;;;;;4912097;29;20569;-77
2022/04/05 01:08:30;;;;;;;4.72;1.80;;;6.40;99.90;;;;;;4913024;29;20147;-77
2022/04/05 01:10:58;;;;;;;6.65;1.90;;;6.30;99.90;;;;;;4881154;29;20768;-79
2022/04/05 01:13:24;;;;;;;4.60;1.70;;;6.30;99.90;;;;;;4910762;29;20063;-77
2022/04/05 01:15:50;;;;;;;7.00;1.70;;;6.30;99.90;;;;;;4894292;29;20057;-78
2022/04/05 01:18:17;;;;;;;6.55;1.65;;;6.30;99.90;;;;;;4887040;29;20498;-78
2022/04/05 01:20:43;;;;;;;7.68;1.77;;;6.30;99.90;;;;;;4912516;29;20052;-77
2022/04/05 01:23:09;;;;;;;2.90;1.40;;;6.30;99.90;;;;;;4896347;29;20046;-77
2022/04/05 01:25:35;;;;;;;6.25;1.70;;;6.30;99.90;;;;;;4897393;29;20126;-77
2022/04/05 01:28:00;;;;;;;5.72;1.65;;;6.30;99.90;;;;;;4910857;29;20514;-84
2022/04/05 01:30:26;;;;;;;3.42;1.30;;;6.20;99.90;;;;;;4912727;29;20056;-78
2022/04/05 01:32:57;;;;;;;3.90;1.40;;;6.90;99.90;;;;;;4913005;29;20060;-78
2022/04/05 01:35:23;;;;;;;4.80;1.38;;;6.20;99.90;;;;;;4912068;29;20051;-76
2022/04/05 01:37:48;;;;;;;5.25;2.30;;;6.20;99.90;;;;;;4914052;29;20052;-79
2022/04/05 01:40:14;;;;;;;5.05;1.70;;;6.20;99.90;;;;;;4896379;29;20064;-78
2022/04/05 01:42:40;;;;;;;6.47;1.60;;;6.20;99.90;;;;;;4910675;29;20100;-77
2022/04/05 01:45:06;;;;;;;6.07;1.73;;;6.20;99.90;;;;;;4911394;29;20052;-79
2022/04/05 01:47:32;;;;;;;6.88;1.60;;;6.20;99.90;;;;;;4913012;29;20080;-77
2022/04/05 01:49:58;;;;;;;6.18;1.73;;;6.20;99.90;;;;;;4912428;29;20060;-77
2022/04/05 01:52:24;;;;;;;4.13;1.40;;;6.40;99.90;;;;;;4911531;29;20108;-77
2022/04/05 01:54:50;;;;;;;5.00;1.67;;;6.20;99.90;;;;;;4896748;29;20115;-77
2022/04/05 01:57:15;;;;;;;4.10;1.55;;;6.40;99.90;;;;;;4895091;29;20044;-79
2022/04/05 01:59:41;;;;;;;6.50;1.85;;;6.10;99.90;;;;;;4911975;29;20051;-78
2022/04/05 02:02:09;;;;;;;6.30;1.80;;;6.10;99.90;;;;;;4912268;29;20063;-78
2022/04/05 02:04:36;;;;;;;8.80;1.60;;;6.10;99.90;;;;;;4898411;29;20052;-77
2022/04/05 02:07:10;;;;;;;2.65;1.73;;;6.10;99.90;;;;;;4893567;29;20092;-78
2022/04/05 02:09:35;;;;;;;4.85;1.70;;;6.10;99.90;;;;;;4893819;29;20057;-77
2022/04/05 02:12:02;;;;;;;6.90;1.73;;;6.30;99.90;;;;;;4892570;29;20088;-78
2022/04/05 02:14:28;;;;;;;8.65;2.40;;;6.10;99.90;;;;;;4893252;29;20067;-77
2022/04/05 02:16:54;;;;;;;6.43;1.98;;;6.10;99.90;;;;;;4906470;29;20059;-78
2022/04/05 02:19:20;;;;;;;3.50;1.60;;;6.00;99.90;;;;;;4895901;29;20058;-77
2022/04/05 02:21:45;;;;;;;6.50;1.65;;;6.10;99.90;;;;;;4882627;29;20135;-78
2022/04/05 02:24:11;;;;;;;4.60;1.55;;;6.00;99.90;;;;;;4895499;29;20418;-77
2022/04/05 02:26:37;;;;;;;7.20;1.70;;;6.00;99.90;;;;;;4898196;29;20678;-77
2022/04/05 02:29:03;;;;;;;4.47;1.70;;;6.00;99.90;;;;;;4896238;29;20049;-77
2022/04/05 02:31:28;;;;;;;7.30;1.80;;;6.00;99.90;;;;;;4896737;29;20816;-77
2022/04/05 02:33:54;;;;;;;4.38;1.80;;;6.00;99.90;;;;;;4866015;29;20117;-77
2022/04/05 02:36:20;;;;;;;8.63;1.67;;;6.00;99.90;;;;;;4896159;29;20184;-77
2022/04/05 02:38:45;;;;;;;12.10;1.83;;;6.10;99.90;;;;;;4881042;29;20053;-78
2022/04/05 02:41:11;;;;;;;9.98;1.60;;;6.00;99.90;;;;;;4897457;29;20052;-77
2022/04/05 02:43:37;;;;;;;5.38;1.50;;;6.00;99.90;;;;;;4896612;29;20503;-78
2022/04/05 02:46:03;;;;;;;5.72;1.70;;;6.00;99.90;;;;;;4908315;29;20450;-77
2022/04/05 02:48:29;;;;;;;8.20;1.90;;;6.10;99.90;;;;;;4916325;29;20092;-76
2022/04/05 02:50:55;;;;;;;;;;;6.00;99.90;;;;;;4899715;29;20048;-78
2022/04/05 02:53:21;;;;;;;3.65;1.60;;;6.00;99.90;;;;;;4914697;29;20341;-77
2022/04/05 02:55:47;;;;;;;4.50;1.60;;;6.00;99.90;;;;;;4915490;29;20060;-77
2022/04/05 02:58:13;;;;;;;1.92;1.17;;;5.90;99.90;;;;;;4913848;29;20044;-76
2022/04/05 03:00:39;;;;;;;3.67;1.50;;;5.90;99.90;;;;;;4915471;29;20051;-77
2022/04/05 03:03:05;;;;;;;5.18;1.35;;;5.90;99.90;;;;;;4899766;29;20504;-77
2022/04/05 03:05:31;;;;;;;7.60;1.67;;;5.90;99.90;;;;;;4898463;29;20065;-78
2022/04/05 03:07:57;;;;;;;5.38;1.27;;;5.90;99.90;;;;;;4915430;29;20048;-79
2022/04/05 03:10:23;;;;;;;6.55;1.48;;;6.00;99.90;;;;;;4914711;29;20056;-78
2022/04/05 03:12:48;;;;;;;5.85;1.70;;;6.00;99.90;;;;;;4898146;29;20101;-77
2022/04/05 03:15:14;;;;;;;4.38;1.77;;;5.90;99.90;;;;;;4914836;29;20056;-77
2022/04/05 03:17:44;;;;;;;2.20;1.27;;;5.90;99.90;;;;;;4897684;29;20063;-77
2022/04/05 03:20:12;;;;;;;4.55;1.50;;;6.00;99.90;;;;;;4879666;29;20148;-82
2022/04/05 03:22:41;;;;;;;6.40;1.90;;;6.00;99.90;;;;;;4896074;29;20063;-77
2022/04/05 03:25:09;;;;;;;3.53;1.40;;;6.00;99.90;;;;;;4864964;29;20053;-80
2022/04/05 03:27:40;;;;;;;7.78;1.83;;;6.20;99.90;;;;;;4895373;29;20126;-77
2022/04/05 03:30:08;;;;;;;7.95;1.90;;;6.00;99.90;;;;;;4895737;29;20040;-77
2022/04/05 03:32:34;;;;;;;7.50;1.63;;;6.00;99.90;;;;;;4879991;29;20064;-78
2022/04/05 03:34:59;;;;;;;6.20;1.70;;;6.00;99.90;;;;;;4906686;29;20124;-78
2022/04/05 03:37:25;;;;;;;4.68;1.60;;;6.00;99.90;;;;;;4913711;29;20056;-77
2022/04/05 03:39:51;;;;;;;5.95;1.77;;;6.00;99.90;;;;;;4914235;29;20048;-77
2022/04/05 03:42:16;;;;;;;4.82;1.83;;;6.00;99.90;;;;;;4912867;29;20099;-77
2022/04/05 03:44:42;;;;;;;7.00;1.80;;;6.00;99.90;;;;;;4914499;29;20056;-77
2022/04/05 03:47:08;;;;;;;5.50;1.73;;;6.00;99.90;;;;;;4898564;29;20052;-78
2022/04/05 03:49:34;;;;;;;7.15;2.17;;;6.00;99.90;;;;;;4913061;29;20126;-77
2022/04/05 03:51:59;;;;;;;8.15;1.85;;;6.00;99.90;;;;;;4898243;29;20060;-78
2022/04/05 03:54:25;;;;;;;4.72;1.80;;;6.00;99.90;;;;;;4882700;29;20701;-77
2022/04/05 03:56:51;;;;;;;5.45;2.00;;;6.00;99.90;;;;;;4913160;29;20165;-77
2022/04/05 03:59:16;;;;;;;4.85;2.00;;;6.00;99.90;;;;;;4913623;29;20103;-78
2022/04/05 04:01:42;;;;;;;5.50;2.15;;;6.10;99.90;;;;;;4914581;29;20059;-77
2022/04/05 04:04:08;;;;;;;9.32;2.30;;;6.30;99.90;;;;;;4898354;29;20123;-77
2022/04/05 04:06:34;;;;;;;8.45;2.05;;;6.20;99.90;;;;;;4913062;29;20048;-77
2022/04/05 04:08:59;;;;;;;7.28;2.33;;;6.10;99.90;;;;;;4911570;29;20052;-77
2022/04/05 04:11:25;;;;;;;13.07;2.85;;;6.10;99.90;;;;;;4894942;29;20087;-77
2022/04/05 04:13:51;;;;;;;10.00;2.63;;;6.10;99.90;;;;;;4881877;29;20048;-77
2022/04/05 04:16:16;;;;;;;9.77;2.92;;;6.10;99.90;;;;;;4913440;29;20052;-78
2022/04/05 04:18:42;;;;;;;9.27;2.85;;;6.10;99.90;;;;;;4914002;29;20470;-77
2022/04/05 04:21:08;;;;;;;9.25;2.88;;;6.10;99.90;;;;;;4913661;29;20115;-76
2022/04/05 04:23:33;;;;;;;12.15;2.88;;;6.10;99.90;;;;;;4913188;29;20044;-77
2022/04/05 04:25:59;;;;;;;13.55;3.53;;;6.00;99.90;;;;;;4913812;29;20044;-76
2022/04/05 04:28:25;;;;;;;8.52;3.33;;;6.10;99.90;;;;;;4912008;29;20490;-77
2022/04/05 04:30:51;;;;;;;10.80;3.55;;;6.10;99.90;;;;;;4882380;29;20056;-76
2022/04/05 04:33:16;;;;;;;9.80;3.30;;;6.10;99.90;;;;;;4897599;29;20406;-77
2022/04/05 04:35:44;;;;;;;16.95;3.53;;;6.10;99.90;;;;;;4902477;29;20052;-76
2022/04/05 04:38:10;;;;;;;7.57;3.20;;;6.20;99.90;;;;;;4887130;29;20116;-76
2022/04/05 04:40:36;;;;;;;11.48;3.22;;;6.10;99.90;;;;;;4878361;29;20048;-76
2022/04/05 04:43:02;;;;;;;11.50;3.58;;;6.10;99.90;;;;;;4893407;29;20057;-76
2022/04/05 04:45:31;;;;;;;11.20;3.97;;;6.20;99.90;;;;;;4896931;29;20047;-78
2022/04/05 04:47:57;;;;;;;13.90;3.58;;;6.10;99.90;;;;;;4913613;29;20056;-77
2022/04/05 04:50:22;;;;;;;;;;;6.30;99.90;;;;;;4913060;29;20048;-76
2022/04/05 04:52:48;;;;;;;15.07;4.70;;;6.10;99.90;;;;;;4912378;29;19934;-77
2022/04/05 04:55:14;;;;;;;9.82;4.38;;;6.10;99.90;;;;;;4913909;29;20062;-82
2022/04/05 04:57:40;;;;;;;12.95;3.78;;;6.10;99.90;;;;;;4901138;29;20060;-77
2022/04/05 05:00:07;;;;;;;16.35;3.88;;;6.10;99.90;;;;;;4908426;29;20087;-80
2022/04/05 05:02:49;;;;;;;11.60;3.70;;;6.10;99.90;;;;;;4912662;29;20100;-77
2022/04/05 05:05:22;;;;;;;13.68;4.07;;;6.10;99.90;;;;;;4912213;29;20137;-82
2022/04/05 05:07:49;;;;;;;18.70;4.30;;;6.10;99.90;;;;;;4912920;29;20106;-77
2022/04/05 05:10:17;;;;;;;10.52;3.78;;;6.30;99.90;;;;;;4904142;29;20127;-83
2022/04/05 05:12:43;;;;;;;12.23;3.67;;;6.10;99.90;;;;;;4892941;29;20053;-77
2022/04/05 05:15:15;;;;;;;14.95;3.95;;;6.10;99.90;;;;;;4894249;29;20139;-77
2022/04/05 05:17:41;;;;;;;16.30;4.03;;;6.20;99.90;;;;;;4894054;29;20056;-77
2022/04/05 05:20:07;;;;;;;;;;;6.10;99.90;;;;;;4895152;29;20116;-78
2022/04/05 05:22:33;;;;;;;11.57;3.90;;;6.10;99.90;;;;;;4896670;29;19927;-77
2022/04/05 05:24:59;;;;;;;8.13;3.53;;;6.00;99.90;;;;;;4893796;29;20491;-77
2022/04/05 05:27:25;;;;;;;11.30;3.95;;;6.10;99.90;;;;;;4892203;29;20060;-77
2022/04/05 05:29:51;;;;;;;14.63;4.30;;;6.10;99.90;;;;;;4893858;29;20061;-77
2022/04/05 05:32:17;;;;;;;13.82;3.70;;;6.10;99.90;;;;;;4893827;29;20344;-83
2022/04/05 05:34:42;;;;;;;13.15;3.83;;;6.10;99.90;;;;;;4907852;29;20040;-77
2022/04/05 05:37:09;;;;;;;21.52;5.88;;;6.10;99.90;;;;;;4902203;29;20514;-77
2022/04/05 05:39:35;;;;;;;;;;;6.40;99.90;;;;;;4912130;29;20059;-77
2022/04/05 05:42:00;;;;;;;10.10;4.18;;;6.10;99.90;;;;;;4911115;29;20677;-77
2022/04/05 05:44:26;;;;;;;9.43;4.07;;;6.40;99.90;;;;;;4911793;29;20048;-77
2022/04/05 05:46:52;;;;;;;10.20;3.60;;;6.20;99.90;;;;;;4912836;29;20055;-77
2022/04/05 05:49:18;;;;;;;11.65;3.70;;;6.20;99.90;;;;;;4899606;29;20056;-82
2022/04/05 05:51:43;;;;;;;11.40;3.25;;;6.60;99.90;;;;;;4893578;29;20087;-78
2022/04/05 05:54:09;;;;;;;9.77;3.60;;;6.20;99.90;;;;;;4913673;29;20487;-76
2022/04/05 05:56:35;;;;;;;9.15;3.45;;;6.30;99.90;;;;;;4902304;29;20052;-77
2022/04/05 05:59:01;;;;;;;16.00;4.60;;;6.30;99.90;;;;;;4896542;29;20640;-76
2022/04/05 06:01:26;;;;;;;14.82;4.25;;;6.30;99.90;;;;;;4885090;29;20053;-76
2022/04/05 06:03:52;;;;;;;12.02;3.88;;;6.30;99.90;;;;;;4897271;29;20045;-76
2022/04/05 06:06:18;;;;;;;14.10;4.30;;;6.30;99.90;;;;;;4898834;29;20061;-81
2022/04/05 06:08:44;;;;;;;11.75;3.63;;;6.30;99.90;;;;;;4915590;29;20477;-77
2022/04/05 06:11:10;;;;;;;12.27;4.07;;;6.40;99.90;;;;;;4892406;29;20057;-76
2022/04/05 06:13:36;;;;;;;11.55;3.67;;;6.40;99.90;;;;;;4898367;29;20067;-76
2022/04/05 06:16:02;;;;;;;9.75;4.10;;;6.40;99.90;;;;;;4915810;29;20044;-76
2022/04/05 06:18:29;;;;;;;10.25;3.03;;;6.40;99.90;;;;;;4899226;29;20048;-76
2022/04/05 06:20:54;;;;;;;11.93;3.40;;;6.50;99.90;;;;;;4903066;29;20055;-76
2022/04/05 06:23:20;;;;;;;15.68;3.58;;;6.50;99.90;;;;;;4900447;29;20055;-83
2022/04/05 06:25:46;;;;;;;9.40;3.55;;;6.50;99.90;;;;;;4915417;29;20059;-79
2022/04/05 06:28:12;;;;;;;11.73;3.38;;;6.50;99.90;;;;;;4914377;29;20056;-76
2022/04/05 06:30:39;;;;;;;;;;;6.50;99.90;;;;;;4915823;29;20079;-78
2022/04/05 06:33:11;;;;;;;8.30;2.60;;;6.60;99.90;;;;;;4899890;29;20407;-76
2022/04/05 06:35:40;;;;;;;12.07;3.30;;;6.60;99.90;;;;;;4914288;29;20387;-78
2022/04/05 06:38:06;;;;;;;12.85;3.78;;;6.60;99.90;;;;;;4914823;29;20040;-78
2022/04/05 06:40:32;;;;;;;8.05;3.08;;;6.60;99.90;;;;;;4914920;29;20477;-78
2022/04/05 06:42:58;;;;;;;12.82;3.00;;;6.60;99.90;;;;;;4882774;29;20056;-76
2022/04/05 06:45:24;;;;;;;8.55;2.65;;;6.50;99.90;;;;;;4899306;29;20402;-81
2022/04/05 06:47:51;;;;;;;8.05;2.63;;;6.60;99.90;;;;;;4899397;29;20040;-78
2022/04/05 06:50:20;;;;;;;10.27;2.42;;;6.60;99.90;;;;;;4894832;29;20052;-76
2022/04/05 06:52:47;;;;;;;10.90;2.55;;;6.60;99.90;;;;;;4905714;29;20163;-78
2022/04/05 06:55:13;;;;;;;6.80;1.80;;;6.70;99.90;;;;;;4914912;29;20063;-76
2022/04/05 06:57:39;;;;;;;9.82;2.33;;;6.70;99.90;;;;;;4897458;29;20123;-76
2022/04/05 07:00:07;;;;;;;8.65;2.15;;;6.70;99.90;;;;;;4914696;29;20052;-76
2022/04/05 07:02:33;;;;;;;7.55;2.03;;;6.80;99.90;;;;;;4914189;29;20048;-76
2022/04/05 07:04:59;;;;;;;;;;;6.80;99.90;;;;;;4914466;29;20111;-78
2022/04/05 07:07:25;;;;;;;10.45;2.33;;;6.90;99.90;;;;;;4906902;29;19931;-81
2022/04/05 07:09:50;;;;;;;6.00;2.08;;;6.80;99.90;;;;;;4901605;29;20739;-77
2022/04/05 07:12:16;;;;;;;6.20;1.95;;;6.90;99.90;;;;;;4903179;29;20459;-80
2022/04/05 07:14:42;;;;;;;7.55;2.10;;;6.90;99.90;;;;;;4904140;29;20055;-77
2022/04/05 07:17:07;;;;;;;4.97;2.10;;;6.90;99.90;;;;;;4913341;29;20058;-78
2022/04/05 07:19:36;;;;;;;7.82;2.10;;;6.90;99.90;;;;;;4903993;29;20052;-76
2022/04/05 07:22:02;;;;;;;6.28;1.85;;;7.00;99.90;;;;;;4910772;29;20059;-76
2022/04/05 07:24:29;;;;;;;6.75;2.22;;;7.00;99.90;;;;;;4879481;29;20142;-77
2022/04/05 07:26:55;;;;;;;14.23;2.65;;;7.00;99.90;;;;;;4889998;29;20044;-76
2022/04/05 07:29:21;;;;;;;4.35;2.00;;;7.00;99.90;;;;;;4902828;29;20064;-77
2022/04/05 07:31:47;;;;;;;5.78;2.13;;;7.00;99.90;;;;;;4905337;29;20143;-76
2022/04/05 07:34:12;;;;;;;8.95;2.13;;;7.00;99.90;;;;;;4888186;29;20046;-80
2022/04/05 07:36:38;;;;;;;7.82;3.33;;;7.00;99.90;;;;;;4911249;29;20051;-79
2022/04/05 07:39:04;;;;;;;4.20;1.70;;;7.00;99.90;;;;;;4900661;29;20463;-76
2022/04/05 07:41:30;;;;;;;6.00;2.00;;;7.10;99.90;;;;;;4904091;29;20059;-75
2022/04/05 07:43:56;;;;;;;7.78;1.90;;;7.10;99.90;;;;;;4902649;29;20135;-77
2022/04/05 07:46:22;;;;;;;5.78;2.17;;;7.10;99.90;;;;;;4903650;29;20072;-75
2022/04/05 07:48:47;;;;;;;4.38;1.63;;;7.10;99.90;;;;;;4898266;29;20048;-75
2022/04/05 07:51:14;;;;;;;7.32;2.03;;;7.10;99.90;;;;;;4897334;29;20409;-75
2022/04/05 07:53:41;;;;;;;9.38;1.67;;;7.20;99.90;;;;;;4895442;29;20071;-79
2022/04/05 07:56:06;;;;;;;5.93;1.90;;;7.20;99.90;;;;;;4896143;29;20168;-76
2022/04/05 07:58:33;;;;;;;9.25;1.40;;;7.30;99.90;;;;;;4894240;29;20127;-76
2022/04/05 08:00:59;;;;;;;4.25;1.48;;;7.30;99.90;;;;;;4880398;29;20060;-75
2022/04/05 08:03:24;;;;;;;7.72;1.65;;;7.30;99.90;;;;;;4896049;29;20486;-76
2022/04/05 08:05:50;;;;;;;5.95;1.65;;;7.40;99.90;;;;;;4894734;29;20138;-76
2022/04/05 08:08:16;;;;;;;4.28;1.50;;;7.40;99.90;;;;;;4895778;29;20131;-76
2022/04/05 08:10:42;;;;;;;4.15;1.42;;;7.40;99.90;;;;;;4875111;29;20083;-80
2022/04/05 08:13:08;;;;;;;;;;;7.40;99.90;;;;;;4903976;29;20056;-76
2022/04/05 08:15:34;;;;;;;3.00;1.63;;;7.40;99.90;;;;;;4901730;29;19923;-76
2022/04/05 08:18:00;;;;;;;5.22;1.67;;;7.50;99.90;;;;;;4892910;29;20039;-77
2022/04/05 08:20:26;;;;;;;5.78;1.83;;;7.50;99.90;;;;;;4903602;29;20111;-78
2022/04/05 08:22:51;;;;;;;2.60;1.35;;;7.70;99.90;;;;;;4914843;29;20090;-76
2022/04/05 08:25:18;;;;;;;2.13;1.27;;;7.60;99.90;;;;;;4908802;29;20064;-76
2022/04/05 08:27:46;;;;;;;2.05;1.17;;;7.60;99.90;;;;;;4912166;29;20052;-78
2022/04/05 08:30:15;;;;;;;5.45;1.13;;;7.60;99.90;;;;;;4914271;29;20051;-76
2022/04/05 08:32:42;;;;;;;5.95;1.63;;;7.60;99.90;;;;;;4897371;29;20056;-76
2022/04/05 08:35:14;;;;;;;4.63;1.38;;;7.70;99.90;;;;;;4897781;29;20111;-80
2022/04/05 08:37:41;;;;;;;2.60;1.27;;;7.70;99.90;;;;;;4910401;29;20067;-76
2022/04/05 08:40:07;;;;;;;3.53;1.45;;;7.80;99.90;;;;;;4914236;29;20055;-76
2022/04/05 08:42:38;;;;;;;3.15;1.40;;;7.80;99.90;;;;;;4913409;29;20092;-76
2022/04/05 08:45:10;;;;;;;1.40;1.05;;;7.80;99.90;;;;;;4913441;29;20055;-77
2022/04/05 08:47:44;;;;;;;4.28;1.45;;;7.80;99.90;;;;;;4896935;29;20128;-76
2022/04/05 08:50:10;;;;;;;3.50;1.75;;;7.80;99.90;;;;;;4895753;29;20553;-78
2022/04/05 08:52:36;;;;;;;3.13;1.25;;;7.80;99.90;;;;;;4913487;29;20075;-76
2022/04/05 08:55:01;;;;;;;3.10;1.20;;;7.90;99.90;;;;;;4913549;29;20513;-76
2022/04/05 08:57:28;;;;;;;3.78;1.40;;;7.90;99.90;;;;;;4907642;29;20383;-76
2022/04/05 08:59:54;;;;;;;4.38;1.75;;;7.90;99.90;;;;;;4911926;29;20113;-78
2022/04/05 09:02:25;;;;;;;5.88;1.60;;;8.00;99.90;;;;;;4913048;29;20056;-77
2022/04/05 09:04:51;;;;;;;4.13;1.42;;;8.00;99.90;;;;;;4907089;29;20048;-78
2022/04/05 09:07:25;;;;;;;3.33;1.75;;;8.00;99.90;;;;;;4911303;29;20506;-76
2022/04/05 09:10:08;;;;;;;7.40;1.60;;;8.00;99.90;;;;;;4896578;29;20071;-76
2022/04/05 09:12:50;;;;;;;5.07;1.65;;;8.00;99.90;;;;;;4891274;29;20056;-78
2022/04/05 09:15:16;;;;;;;4.18;1.73;;;8.00;99.90;;;;;;4911874;29;20087;-79
2022/04/05 09:17:44;;;;;;;4.53;1.70;;;8.00;99.90;;;;;;4911776;29;20142;-77
2022/04/05 09:20:12;;;;;;;3.30;1.60;;;8.00;99.90;;;;;;4914043;29;20409;-78
2022/04/05 09:22:38;;;;;;;2.05;1.40;;;8.10;99.90;;;;;;4910735;29;20044;-76
2022/04/05 09:25:08;;;;;;;;;;;8.10;99.90;;;;;;4912992;29;20051;-78
2022/04/05 09:27:57;;;;;;;2.47;1.55;;;8.00;99.90;;;;;;4910488;29;20002;-82
2022/04/05 09:30:27;;;;;;;1.95;1.17;;;8.10;99.90;;;;;;4911768;29;20079;-77
2022/04/05 09:32:54;;;;;;;3.38;1.35;;;8.10;99.90;;;;;;4918294;29;20336;-76
2022/04/05 09:35:29;;;;;;;2.92;1.45;;;8.10;99.90;;;;;;4918367;29;20051;-76
2022/04/05 09:38:10;;;;;;;2.95;1.40;;;8.20;99.90;;;;;;4918204;29;20060;-76
2022/04/05 09:40:36;;;;;;;3.38;1.60;;;8.20;99.90;;;;;;4915035;29;20056;-78
2022/04/05 09:43:05;;;;;;;;;;;8.20;99.90;;;;;;4917649;29;20066;-75
2022/04/05 09:46:01;;;;;;;2.95;1.45;;;8.30;99.90;;;;;;4918468;29;19998;-75
2022/04/05 09:48:31;;;;;;;2.65;1.30;;;8.40;99.90;;;;;;4897459;29;20059;-75
2022/04/05 09:51:06;;;;;;;2.13;1.30;;;8.40;99.90;;;;;;4917764;29;20410;-75
2022/04/05 09:53:38;;;;;;;1.83;1.33;;;8.40;99.90;;;;;;4899128;29;20053;-75
2022/04/05 09:56:12;;;;;;;2.10;1.30;;;8.50;99.90;;;;;;4917834;29;20051;-77
2022/04/05 09:58:44;;;;;;;1.38;1.20;;;8.50;99.90;;;;;;4915255;29;20044;-83
2022/04/05 10:01:13;;;;;;;1.92;1.40;;;8.50;99.90;;;;;;4907943;29;20052;-75
2022/04/05 10:03:43;;;;;;;1.45;1.27;;;8.50;99.90;;;;;;4907092;29;20052;-75
2022/04/05 10:06:09;;;;;;;3.85;1.30;;;8.50;99.90;;;;;;4917499;29;20048;-80
2022/04/05 10:08:37;;;;;;;1.58;1.20;;;8.50;99.90;;;;;;4913709;29;20107;-79
2022/04/05 10:11:05;;;;;;;2.17;1.45;;;8.50;99.90;;;;;;4910450;29;20044;-76
2022/04/05 10:13:31;;;;;;;2.30;1.50;;;8.60;99.90;;;;;;4906893;29;21046;-77
2022/04/05 10:15:57;;;;;;;;;;;8.70;99.90;;;;;;4894037;29;20052;-78
2022/04/05 10:18:34;;;;;;;3.00;1.80;;;8.60;99.90;;;;;;4913360;29;19986;-76
2022/04/05 10:21:01;;;;;;;3.33;1.90;;;8.60;99.90;;;;;;4910394;29;20059;-76
2022/04/05 10:23:28;;;;;;;2.83;2.03;;;8.60;99.90;;;;;;4908150;29;20748;-76
2022/04/05 10:25:54;;;;;;;4.45;2.30;;;8.50;99.90;;;;;;4910507;29;20054;-77
2022/04/05 10:28:24;;;;;;;4.60;2.67;;;8.50;99.90;;;;;;4892965;29;20049;-77
2022/04/05 10:31:02;;;;;;;5.28;2.80;;;8.50;99.90;;;;;;4912257;29;20402;-79
2022/04/05 10:33:50;;;;;;;7.15;3.58;;;8.70;99.90;;;;;;4905248;29;20045;-76
2022/04/05 10:36:24;;;;;;;6.93;3.05;;;8.70;99.90;;;;;;4898546;29;20131;-78
2022/04/05 10:39:16;;;;;;;8.27;3.80;;;8.70;99.90;;;;;;4899346;29;20056;-77
2022/04/05 10:42:04;;;;;;;11.25;4.28;;;8.80;99.90;;;;;;4899947;29;20142;-78
2022/04/05 10:44:29;;;;;;;8.73;3.80;;;8.90;99.90;;;;;;4885837;29;20048;-77
2022/04/05 10:46:58;;;;;;;7.97;4.10;;;8.90;99.90;;;;;;4881596;29;20052;-77
2022/04/05 10:49:35;;;;;;;8.23;4.03;;;8.80;99.90;;;;;;4895720;29;20048;-77
2022/04/05 10:52:09;;;;;;;8.43;4.40;;;8.80;99.90;;;;;;4896087;29;20679;-76
2022/04/05 10:54:42;;;;;;;9.50;4.45;;;8.90;99.90;;;;;;4898757;29;20123;-76
2022/04/05 10:57:26;;;;;;;10.82;4.82;;;8.90;99.90;;;;;;4878318;29;20056;-76
2022/04/05 11:00:01;;;;;;;10.55;5.50;;;9.00;99.90;;;;;;4897180;29;20084;-76
2022/04/05 11:03:06;;;;;;;11.63;4.65;;;9.00;99.90;;;;;;4896034;29;20076;-76
2022/04/05 11:05:38;;;;;;;11.45;5.78;;;9.10;99.90;;;;;;4897162;29;20064;-77
2022/04/05 11:08:13;;;;;;;8.45;4.40;;;9.20;99.90;;;;;;4895844;29;20060;-77
2022/04/05 11:10:39;;;;;;;11.47;5.57;;;9.20;99.90;;;;;;4894933;29;20052;-76
2022/04/05 11:13:14;;;;;;;9.43;4.78;;;9.30;99.90;;;;;;4893090;29;20491;-76
2022/04/05 11:15:43;;;;;;;10.38;4.72;;;9.30;99.90;;;;;;4923821;29;20060;-77
2022/04/05 11:18:10;;;;;;;9.98;5.50;;;9.40;99.90;;;;;;4894708;29;20052;-76
2022/04/05 11:20:38;;;;;;;;;;;9.50;99.90;;;;;;4898236;29;20108;-76
2022/04/05 11:23:03;;;;;;;;;;;9.70;99.90;;;;;;4894351;29;20647;-76
2022/04/05 11:25:30;;;;;;;;;;;9.80;99.90;;;;;;4895476;29;19931;-78
2022/04/05 11:28:08;;;;;;;;;;;9.90;99.90;;;;;;4901164;29;20000;-79
2022/04/05 11:30:37;;;;;;;;;;;10.00;99.90;;;;;;4915885;29;19977;-78
2022/04/05 11:33:17;;;;;;;;;;;10.10;99.90;;;;;;4896414;29;20049;-74
2022/04/05 11:35:43;;;;;;;;;;;10.20;99.90;;;;;;4903114;29;19923;-80
2022/04/05 11:38:28;;;;;;;;;;;10.20;99.90;;;;;;4896131;29;19978;-74
2022/04/05 11:41:06;;;;;;;;;;;10.30;99.90;;;;;;4896232;29;20267;-74
2022/04/05 11:43:34;;;;;;;;;;;10.40;99.90;;;;;;4895480;29;19927;-74
2022/04/05 11:46:04;;;;;;;;;;;10.40;99.90;;;;;;4896267;29;19927;-75
2022/04/05 11:48:30;;;;;;;;;;;10.40;99.90;;;;;;4896683;29;19923;-75
2022/04/05 11:50:58;;;;;;;;;;;10.50;99.90;;;;;;4910327;29;19930;-75
2022/04/05 11:53:24;;;;;;;;;;;10.60;99.90;;;;;;4914799;29;19927;-74
2022/04/05 11:56:03;;;;;;;;;;;10.60;99.90;;;;;;4898706;29;19933;-75
2022/04/05 11:58:30;;;;;;;;;;;10.60;99.90;;;;;;4913665;29;19923;-75
2022/04/05 12:00:57;;;;;;;;;;;10.60;99.90;;;;;;4895826;29;20014;-75
2022/04/05 12:03:23;;;;;;;;;;;10.60;99.90;;;;;;4896456;29;19934;-74
2022/04/05 12:05:49;;;;;;;;;;;10.60;99.90;;;;;;4895156;29;19927;-77
2022/04/05 12:08:15;;;;;;;;;;;10.50;99.90;;;;;;4896179;29;20021;-75
2022/04/05 12:10:42;;;;;;;;;;;10.40;99.90;;;;;;4900707;29;20025;-75
2022/04/05 12:13:08;;;;;;;;;;;10.40;99.90;;;;;;4913251;29;19946;-74
2022/04/05 12:15:34;;;;;;;;;;;10.30;99.90;;;;;;4911765;29;19930;-75
2022/04/05 12:18:17;;;;;;;;;;;10.40;99.90;;;;;;4914540;29;19927;-77
2022/04/05 12:21:03;;;;;;;;;;;10.50;99.90;;;;;;4914393;29;20669;-74
2022/04/05 12:23:29;;;;;;;;;;;10.60;99.90;;;;;;4895856;29;19930;-76
2022/04/05 12:26:01;;;;;;;;;;;10.70;99.90;;;;;;4895385;29;19923;-74
2022/04/05 12:28:27;;;;;;;;;;;10.80;99.90;;;;;;4894885;29;20060;-75
2022/04/05 12:30:52;;;;;;;;;;;10.80;99.90;;;;;;4895392;29;20014;-75
2022/04/05 12:33:24;;;;;;;;;;;10.70;99.90;;;;;;4895686;29;20373;-75
2022/04/05 12:35:50;;;;;;;;;;;10.70;99.90;;;;;;4879200;29;19930;-75
2022/04/05 12:38:15;;;;;;;;;;;10.70;99.90;;;;;;4880405;29;20365;-75
2022/04/05 12:40:41;;;;;;;;;;;10.60;99.90;;;;;;4879950;29;20305;-75
2022/04/05 12:43:17;;;;;;;;;;;10.60;99.90;;;;;;4893318;29;20022;-77
2022/04/05 12:45:43;;;;;;;;;;;10.70;99.90;;;;;;4901798;29;19934;-76
2022/04/05 12:48:15;;;;;;;;;;;10.80;99.90;;;;;;4897681;29;19923;-77
2022/04/05 12:50:45;;;;;;;;;;;10.90;99.90;;;;;;4898160;29;20448;-76
2022/04/05 12:53:13;;;;;;;;;;;10.90;99.90;;;;;;4912468;29;20349;-76
2022/04/05 12:55:38;;;;;;;;;;;10.90;99.90;;;;;;4913223;29;19934;-76
2022/04/05 12:58:04;;;;;;;;;;;10.90;99.90;;;;;;4911690;29;19927;-80
2022/04/05 13:00:33;;;;;;;;;;;10.90;99.90;;;;;;4911418;29;19933;-76
2022/04/05 13:03:11;;;;;;;;;;;10.80;99.90;;;;;;4911502;29;19966;-75
2022/04/05 13:08:31;;;;;;;;;;;10.50;99.90;;;;;;4912291;29;19927;-76
2022/04/05 13:10:57;;;;;;;;;;;10.40;99.90;;;;;;4909911;29;19954;-76
2022/04/05 13:13:40;;;;;;;;;;;10.30;99.90;;;;;;4909878;29;19927;-75
2022/04/05 13:16:07;;;;;;;;;;;10.30;99.90;;;;;;4910299;29;19927;-77
2022/04/05 13:18:33;;;;;;;;;;;10.30;99.90;;;;;;4910735;29;21303;-75